Time;durP1;ratioP1;P1;durP2;ratioP2;P2;SDS_P1;SDS_P2;PMS_P1;PMS_P2;Temp;Humidity;BMP_temperature;BMP_pressure;BME280_temperature;BME280_humidity;BME280_pressure;Samples;Min_cycle;Max_cycle;Signal;HPM_P1;HPM_P2
2022/04/11 00:02:00;;;;;;;3.30;2.15;;;;;;;;;;5034040;28;20049;-68
2022/04/11 00:04:26;;;;;;;3.80;2.38;;;;;;;;;;5027492;28;20505;-68
2022/04/11 00:06:52;;;;;;;4.07;2.13;;;;;;;;;;5033670;28;20045;-68
2022/04/11 00:09:18;;;;;;;3.80;2.22;;;;;;;;;;5032671;28;20033;-68
2022/04/11 00:11:44;;;;;;;4.43;2.10;;;;;;;;;;5033163;28;20120;-68
2022/04/11 00:14:10;;;;;;;2.97;2.10;;;;;;;;;;5033617;28;20103;-68
2022/04/11 00:16:36;;;;;;;3.30;2.20;;;;;;;;;;5032390;28;20496;-68
2022/04/11 00:19:02;;;;;;;3.33;2.40;;;;;;;;;;5017838;28;20133;-68
2022/04/11 00:21:28;;;;;;;3.35;2.28;;;;;;;;;;5012692;28;20045;-68
2022/04/11 00:23:54;;;;;;;3.70;2.42;;;;;;;;;;5013751;28;20417;-68
2022/04/11 00:26:20;;;;;;;3.92;2.13;;;;;;;;;;5014377;28;20049;-68
2022/04/11 00:28:46;;;;;;;2.75;2.22;;;;;;;;;;5025939;28;20467;-68
2022/04/11 00:31:12;;;;;;;3.40;2.58;;;;;;;;;;5033767;28;20037;-68
2022/04/11 00:33:38;;;;;;;3.70;2.33;;;;;;;;;;5033473;28;20073;-68
2022/04/11 00:36:05;;;;;;;3.58;2.05;;;;;;;;;;5032894;28;20052;-68
2022/04/11 00:38:31;;;;;;;4.35;2.30;;;;;;;;;;5023035;28;20037;-68
2022/04/11 00:40:57;;;;;;;3.92;2.40;;;;;;;;;;5017648;28;20045;-68
2022/04/11 00:43:29;;;;;;;3.20;2.13;;;;;;;;;;5033170;28;20049;-68
2022/04/11 00:45:56;;;;;;;3.35;2.10;;;;;;;;;;5023062;28;20168;-68
2022/04/11 00:48:22;;;;;;;2.80;2.20;;;;;;;;;;5021255;28;20045;-68
2022/04/11 00:50:48;;;;;;;3.17;2.22;;;;;;;;;;5033147;28;20535;-68
2022/04/11 00:53:14;;;;;;;3.17;2.10;;;;;;;;;;5021143;28;20052;-68
2022/04/11 00:55:42;;;;;;;4.20;2.30;;;;;;;;;;5015194;28;20046;-68
2022/04/11 00:58:08;;;;;;;2.72;1.90;;;;;;;;;;5019011;28;20068;-68
2022/04/11 01:00:36;;;;;;;3.10;2.00;;;;;;;;;;5013121;28;20469;-68
2022/04/11 01:03:02;;;;;;;3.55;2.20;;;;;;;;;;5013489;28;20501;-68
2022/04/11 01:05:28;;;;;;;3.17;2.03;;;;;;;;;;5013869;28;20050;-68
2022/04/11 01:07:56;;;;;;;2.72;2.10;;;;;;;;;;5030160;28;20080;-68
2022/04/11 01:10:22;;;;;;;2.85;2.03;;;;;;;;;;5032661;28;20057;-68
2022/04/11 01:12:49;;;;;;;3.15;2.03;;;;;;;;;;5032724;28;20045;-68
2022/04/11 01:15:15;;;;;;;4.07;2.25;;;;;;;;;;5032205;28;20045;-68
2022/04/11 01:17:42;;;;;;;3.65;2.15;;;;;;;;;;5017054;28;20038;-68
2022/04/11 01:20:08;;;;;;;2.90;2.10;;;;;;;;;;5016839;28;20037;-68
2022/04/11 01:22:34;;;;;;;3.72;2.30;;;;;;;;;;5032830;28;20056;-68
2022/04/11 01:25:01;;;;;;;3.75;2.40;;;;;;;;;;5028374;28;20042;-68
2022/04/11 01:27:27;;;;;;;3.67;2.20;;;;;;;;;;5025047;28;20451;-68
2022/04/11 01:29:53;;;;;;;2.97;2.10;;;;;;;;;;5034232;28;20045;-68
2022/04/11 01:32:19;;;;;;;3.20;2.00;;;;;;;;;;5036792;28;20079;-68
2022/04/11 01:34:45;;;;;;;3.22;2.15;;;;;;;;;;5036762;28;20424;-68
2022/04/11 01:37:11;;;;;;;3.03;2.05;;;;;;;;;;5031589;28;20056;-68
2022/04/11 01:39:38;;;;;;;2.80;1.90;;;;;;;;;;5034307;28;20050;-68
2022/04/11 01:42:04;;;;;;;3.30;2.30;;;;;;;;;;5022618;28;20493;-68
2022/04/11 01:44:30;;;;;;;2.50;2.00;;;;;;;;;;5032109;28;20050;-68
2022/04/11 01:46:56;;;;;;;2.58;2.05;;;;;;;;;;5020692;28;20038;-68
2022/04/11 01:49:22;;;;;;;2.95;2.13;;;;;;;;;;5019345;28;20046;-68
2022/04/11 01:51:48;;;;;;;3.17;2.20;;;;;;;;;;5016709;28;20098;-68
2022/04/11 01:54:14;;;;;;;2.50;2.00;;;;;;;;;;5016580;28;20133;-68
2022/04/11 01:56:40;;;;;;;3.10;2.03;;;;;;;;;;5028491;28;20128;-68
2022/04/11 01:59:06;;;;;;;2.83;2.20;;;;;;;;;;5036006;28;20129;-68
2022/04/11 02:01:32;;;;;;;2.70;1.90;;;;;;;;;;5036142;28;20496;-68
2022/04/11 02:03:58;;;;;;;3.38;2.28;;;;;;;;;;5017980;28;20542;-68
2022/04/11 02:06:24;;;;;;;2.65;2.08;;;;;;;;;;5024762;28;20129;-68
2022/04/11 02:08:50;;;;;;;2.30;1.90;;;;;;;;;;5032278;28;20064;-69
2022/04/11 02:11:16;;;;;;;3.80;2.40;;;;;;;;;;5029424;28;20074;-69
2022/04/11 02:13:42;;;;;;;2.22;1.80;;;;;;;;;;5016242;28;20041;-69
2022/04/11 02:16:08;;;;;;;3.15;2.10;;;;;;;;;;5019013;28;20049;-69
2022/04/11 02:18:34;;;;;;;2.88;1.88;;;;;;;;;;5026025;28;20413;-69
2022/04/11 02:21:00;;;;;;;3.33;2.03;;;;;;;;;;5016296;28;20103;-69
2022/04/11 02:23:26;;;;;;;2.75;2.15;;;;;;;;;;5015988;28;20404;-69
2022/04/11 02:25:52;;;;;;;2.60;2.00;;;;;;;;;;5016092;28;20048;-69
2022/04/11 02:28:18;;;;;;;2.08;1.88;;;;;;;;;;5032790;28;20049;-68
2022/04/11 02:30:44;;;;;;;2.25;2.00;;;;;;;;;;5017394;28;20065;-69
2022/04/11 02:33:10;;;;;;;2.90;2.20;;;;;;;;;;5015744;28;20069;-69
2022/04/11 02:35:36;;;;;;;3.15;2.10;;;;;;;;;;5019660;28;20038;-69
2022/04/11 02:38:02;;;;;;;3.53;2.00;;;;;;;;;;5020611;28;20165;-69
2022/04/11 02:40:29;;;;;;;2.55;2.00;;;;;;;;;;5015474;28;20111;-68
2022/04/11 02:42:55;;;;;;;3.38;2.03;;;;;;;;;;5014834;28;20379;-68
2022/04/11 02:45:21;;;;;;;2.75;2.00;;;;;;;;;;5031878;28;20044;-69
2022/04/11 02:47:47;;;;;;;3.00;2.00;;;;;;;;;;5022516;28;20045;-69
2022/04/11 02:50:13;;;;;;;3.08;1.90;;;;;;;;;;5015871;28;20042;-69
2022/04/11 02:52:39;;;;;;;2.15;1.95;;;;;;;;;;5015476;28;20088;-69
2022/04/11 02:55:06;;;;;;;2.50;1.90;;;;;;;;;;5018765;28;20077;-69
2022/04/11 02:57:32;;;;;;;2.38;1.80;;;;;;;;;;5026119;28;20547;-69
2022/04/11 02:59:58;;;;;;;3.03;2.03;;;;;;;;;;5035247;28;20052;-68
2022/04/11 03:02:24;;;;;;;2.35;1.90;;;;;;;;;;5034930;28;20570;-68
2022/04/11 03:04:51;;;;;;;3.13;1.83;;;;;;;;;;5034950;28;20049;-69
2022/04/11 03:07:16;;;;;;;2.47;1.80;;;;;;;;;;5018576;28;20042;-68
2022/04/11 03:09:42;;;;;;;2.60;1.98;;;;;;;;;;5015009;28;20145;-68
2022/04/11 03:12:09;;;;;;;2.00;1.67;;;;;;;;;;5027319;28;20037;-68
2022/04/11 03:14:35;;;;;;;4.18;2.45;;;;;;;;;;5034977;28;20045;-68
2022/04/11 03:17:01;;;;;;;3.03;2.13;;;;;;;;;;5026122;28;20037;-69
2022/04/11 03:19:27;;;;;;;2.95;2.00;;;;;;;;;;5034734;28;20080;-68
2022/04/11 03:21:53;;;;;;;2.22;1.98;;;;;;;;;;5034903;28;20077;-68
2022/04/11 03:24:19;;;;;;;3.03;1.95;;;;;;;;;;5028901;28;20123;-69
2022/04/11 03:26:45;;;;;;;2.75;1.90;;;;;;;;;;5018198;28;20053;-68
2022/04/11 03:29:11;;;;;;;2.75;2.00;;;;;;;;;;5034727;28;20103;-68
2022/04/11 03:31:37;;;;;;;2.78;2.00;;;;;;;;;;5034266;28;20042;-68
2022/04/11 03:34:03;;;;;;;2.65;2.03;;;;;;;;;;5017771;28;20436;-68
2022/04/11 03:36:29;;;;;;;2.58;2.20;;;;;;;;;;5022335;28;20052;-68
2022/04/11 03:38:55;;;;;;;2.70;2.00;;;;;;;;;;5034091;28;20125;-69
2022/04/11 03:41:21;;;;;;;2.40;1.90;;;;;;;;;;5013234;28;20046;-68
2022/04/11 03:43:47;;;;;;;2.20;1.90;;;;;;;;;;5015439;28;20042;-69
2022/04/11 03:46:13;;;;;;;2.72;2.22;;;;;;;;;;5034138;28;20049;-68
2022/04/11 03:48:39;;;;;;;2.80;2.13;;;;;;;;;;5015552;28;20050;-68
2022/04/11 03:51:05;;;;;;;2.92;2.25;;;;;;;;;;5014478;28;20052;-68
2022/04/11 03:53:31;;;;;;;2.80;2.13;;;;;;;;;;5014630;28;20046;-68
2022/04/11 03:55:57;;;;;;;3.63;2.45;;;;;;;;;;5030476;28;20397;-69
2022/04/11 03:58:23;;;;;;;2.78;2.10;;;;;;;;;;5017619;28;20494;-68
2022/04/11 04:00:49;;;;;;;2.92;2.10;;;;;;;;;;5014164;28;20050;-68
2022/04/11 04:03:15;;;;;;;2.80;2.28;;;;;;;;;;5017272;28;20041;-68
2022/04/11 04:05:45;;;;;;;3.10;2.25;;;;;;;;;;5017888;28;20045;-68
2022/04/11 04:08:12;;;;;;;2.70;2.10;;;;;;;;;;5027996;28;20103;-68
2022/04/11 04:10:38;;;;;;;3.40;2.33;;;;;;;;;;5033515;28;20116;-68
2022/04/11 04:13:04;;;;;;;3.28;2.10;;;;;;;;;;5033726;28;20041;-68
2022/04/11 04:15:30;;;;;;;2.92;2.22;;;;;;;;;;5033633;28;20492;-68
2022/04/11 04:17:57;;;;;;;3.45;2.35;;;;;;;;;;5022487;28;20053;-69
2022/04/11 04:20:26;;;;;;;2.47;2.00;;;;;;;;;;5013705;28;20077;-68
2022/04/11 04:22:55;;;;;;;2.70;2.25;;;;;;;;;;5014091;28;20129;-68
2022/04/11 04:25:21;;;;;;;2.60;2.00;;;;;;;;;;5025586;28;20041;-68
2022/04/11 04:27:47;;;;;;;2.67;2.20;;;;;;;;;;5023783;28;20046;-68
2022/04/11 04:30:13;;;;;;;3.38;2.35;;;;;;;;;;5013981;28;20048;-68
2022/04/11 04:32:40;;;;;;;2.55;2.20;;;;;;;;;;5029346;28;20049;-68
2022/04/11 04:35:06;;;;;;;2.45;2.20;;;;;;;;;;5020297;28;20096;-69
2022/04/11 04:37:32;;;;;;;3.25;2.15;;;;;;;;;;5029711;28;20049;-68
2022/04/11 04:39:58;;;;;;;2.33;2.10;;;;;;;;;;5033345;28;20500;-68
2022/04/11 04:42:27;;;;;;;2.15;1.95;;;;;;;;;;5032620;28;20405;-69
2022/04/11 04:44:53;;;;;;;3.30;2.30;;;;;;;;;;5028577;28;20103;-68
2022/04/11 04:47:19;;;;;;;2.97;2.10;;;;;;;;;;5033056;28;20049;-68
2022/04/11 04:49:46;;;;;;;2.83;2.30;;;;;;;;;;5032001;28;20120;-69
2022/04/11 04:52:12;;;;;;;2.50;2.30;;;;;;;;;;5033271;28;20041;-69
2022/04/11 04:54:38;;;;;;;2.83;2.30;;;;;;;;;;5028844;28;20067;-69
2022/04/11 04:57:05;;;;;;;2.92;2.30;;;;;;;;;;5033133;28;20060;-69
2022/04/11 04:59:31;;;;;;;3.03;2.28;;;;;;;;;;5024914;28;20125;-69
2022/04/11 05:01:57;;;;;;;3.10;2.38;;;;;;;;;;5013184;28;20057;-69
2022/04/11 05:04:23;;;;;;;3.00;2.28;;;;;;;;;;5013302;28;20054;-69
2022/04/11 05:06:50;;;;;;;2.45;2.20;;;;;;;;;;5013793;28;20045;-69
2022/04/11 05:09:16;;;;;;;2.85;2.50;;;;;;;;;;5013671;28;20121;-68
2022/04/11 05:11:42;;;;;;;2.50;2.30;;;;;;;;;;5020502;28;20042;-69
2022/04/11 05:14:08;;;;;;;2.63;2.30;;;;;;;;;;5018368;28;20042;-69
2022/04/11 05:16:34;;;;;;;2.53;2.33;;;;;;;;;;5028399;28;20049;-69
2022/04/11 05:19:00;;;;;;;3.83;2.33;;;;;;;;;;5032885;28;20072;-69
2022/04/11 05:21:27;;;;;;;2.40;2.20;;;;;;;;;;5032861;28;20049;-69
2022/04/11 05:23:53;;;;;;;2.50;2.28;;;;;;;;;;5032189;28;20045;-69
2022/04/11 05:26:19;;;;;;;2.50;2.30;;;;;;;;;;5019170;28;20133;-69
2022/04/11 05:28:45;;;;;;;2.63;2.40;;;;;;;;;;5027572;28;20092;-69
2022/04/11 05:31:11;;;;;;;2.47;2.20;;;;;;;;;;5011479;28;20124;-69
2022/04/11 05:33:37;;;;;;;2.92;2.20;;;;;;;;;;5019029;28;20069;-69
2022/04/11 05:36:03;;;;;;;2.80;2.50;;;;;;;;;;5013313;28;20081;-69
2022/04/11 05:38:29;;;;;;;3.22;2.92;;;;;;;;;;5012907;28;20125;-69
2022/04/11 05:40:58;;;;;;;3.30;3.00;;;;;;;;;;5029681;28;20041;-69
2022/04/11 05:43:25;;;;;;;3.38;2.63;;;;;;;;;;5024880;28;20125;-69
2022/04/11 05:45:51;;;;;;;2.80;2.50;;;;;;;;;;5021505;28;20041;-69
2022/04/11 05:48:17;;;;;;;3.20;2.90;;;;;;;;;;5031307;28;20484;-69
2022/04/11 05:50:43;;;;;;;3.50;2.67;;;;;;;;;;5032679;28;20045;-69
2022/04/11 05:53:09;;;;;;;2.42;2.22;;;;;;;;;;5026968;28;20034;-69
2022/04/11 05:55:35;;;;;;;3.30;2.63;;;;;;;;;;5014346;28;20508;-69
2022/04/11 05:58:01;;;;;;;3.08;2.70;;;;;;;;;;5031987;28;20053;-69
2022/04/11 06:00:27;;;;;;;2.78;2.38;;;;;;;;;;5032588;28;20056;-69
2022/04/11 06:02:53;;;;;;;2.63;2.20;;;;;;;;;;5029567;28;20502;-69
2022/04/11 06:05:19;;;;;;;2.58;2.25;;;;;;;;;;5032767;28;20404;-69
2022/04/11 06:07:45;;;;;;;2.90;2.45;;;;;;;;;;5035662;28;20132;-70
2022/04/11 06:10:12;;;;;;;3.28;2.60;;;;;;;;;;5032746;28;20081;-69
2022/04/11 06:12:38;;;;;;;2.70;2.33;;;;;;;;;;5014196;28;20041;-69
2022/04/11 06:15:05;;;;;;;2.40;2.20;;;;;;;;;;5032341;28;20055;-69
2022/04/11 06:17:31;;;;;;;2.60;2.33;;;;;;;;;;5017071;28;20042;-69
2022/04/11 06:19:58;;;;;;;3.35;2.30;;;;;;;;;;5036008;28;20047;-69
2022/04/11 06:22:24;;;;;;;2.30;2.03;;;;;;;;;;5024182;28;20057;-68
2022/04/11 06:24:51;;;;;;;2.30;2.05;;;;;;;;;;5022889;28;20484;-69
2022/04/11 06:27:17;;;;;;;2.50;2.10;;;;;;;;;;5035285;28;20085;-69
2022/04/11 06:29:43;;;;;;;2.53;2.22;;;;;;;;;;5035631;28;20485;-69
2022/04/11 06:32:10;;;;;;;2.10;1.90;;;;;;;;;;5026399;28;20069;-69
2022/04/11 06:34:36;;;;;;;6.20;2.80;;;;;;;;;;5015889;28;20046;-69
2022/04/11 06:37:03;;;;;;;3.15;1.90;;;;;;;;;;5016032;28;20139;-70
2022/04/11 06:39:29;;;;;;;3.53;1.95;;;;;;;;;;5015833;28;20382;-70
2022/04/11 06:41:55;;;;;;;4.75;2.08;;;;;;;;;;5022293;28;20583;-69
2022/04/11 06:44:21;;;;;;;2.33;2.08;;;;;;;;;;5035267;28;20468;-69
2022/04/11 06:46:47;;;;;;;2.30;1.77;;;;;;;;;;5035527;28;20052;-69
2022/04/11 06:49:13;;;;;;;2.03;1.73;;;;;;;;;;5035261;28;20303;-69
2022/04/11 06:51:39;;;;;;;2.80;1.90;;;;;;;;;;5030932;28;20044;-68
2022/04/11 06:54:05;;;;;;;2.00;1.80;;;;;;;;;;5015999;28;20504;-70
2022/04/11 06:56:31;;;;;;;2.15;1.90;;;;;;;;;;5035460;28;20060;-70
2022/04/11 06:58:57;;;;;;;2.78;2.10;;;;;;;;;;5035321;28;20048;-69
2022/04/11 07:01:23;;;;;;;2.70;1.90;;;;;;;;;;5022369;28;20120;-68
2022/04/11 07:03:51;;;;;;;2.83;2.03;;;;;;;;;;5035003;28;20137;-68
2022/04/11 07:06:17;;;;;;;3.67;2.00;;;;;;;;;;5017229;28;20128;-68
2022/04/11 07:08:43;;;;;;;2.80;1.83;;;;;;;;;;5024225;28;20045;-68
2022/04/11 07:11:09;;;;;;;3.38;2.03;;;;;;;;;;5022911;28;20033;-69
2022/04/11 07:13:35;;;;;;;3.47;1.90;;;;;;;;;;5018250;28;20125;-70
2022/04/11 07:16:02;;;;;;;3.78;1.80;;;;;;;;;;5016216;28;20065;-68
2022/04/11 07:18:28;;;;;;;3.13;1.80;;;;;;;;;;5023286;28;20046;-69
2022/04/11 07:20:55;;;;;;;3.50;1.73;;;;;;;;;;5014807;28;20049;-69
2022/04/11 07:23:21;;;;;;;3.53;2.10;;;;;;;;;;5029047;28;20473;-69
2022/04/11 07:25:48;;;;;;;5.75;1.90;;;;;;;;;;5029335;28;20120;-69
2022/04/11 07:28:14;;;;;;;3.65;1.95;;;;;;;;;;5025186;28;20045;-69
2022/04/11 07:30:40;;;;;;;3.00;1.75;;;;;;;;;;5034683;28;20052;-69
2022/04/11 07:33:06;;;;;;;4.22;1.80;;;;;;;;;;5034537;28;20132;-69
2022/04/11 07:35:32;;;;;;;4.43;1.90;;;;;;;;;;5034103;28;20507;-69
2022/04/11 07:38:00;;;;;;;2.45;1.70;;;;;;;;;;5025548;28;20049;-69
2022/04/11 07:40:26;;;;;;;4.38;2.10;;;;;;;;;;5014416;28;20178;-69
2022/04/11 07:42:53;;;;;;;2.13;1.80;;;;;;;;;;5014641;28;20103;-69
2022/04/11 07:45:19;;;;;;;2.50;1.77;;;;;;;;;;5015143;28;20046;-69
2022/04/11 07:47:46;;;;;;;2.80;1.73;;;;;;;;;;5014919;28;20046;-69
2022/04/11 07:50:11;;;;;;;3.30;1.95;;;;;;;;;;5014550;28;20053;-69
2022/04/11 07:52:42;;;;;;;2.85;1.70;;;;;;;;;;5014605;28;20041;-69
2022/04/11 07:55:08;;;;;;;2.35;1.80;;;;;;;;;;5014291;28;20042;-69
2022/04/11 07:57:34;;;;;;;2.10;1.80;;;;;;;;;;5015271;28;20058;-69
2022/04/11 08:00:00;;;;;;;2.50;1.70;;;;;;;;;;5034070;28;20049;-69
2022/04/11 08:02:27;;;;;;;2.80;1.60;;;;;;;;;;5033984;28;20481;-69
2022/04/11 08:04:53;;;;;;;3.92;1.80;;;;;;;;;;5032500;28;20061;-69
2022/04/11 08:07:20;;;;;;;3.80;2.05;;;;;;;;;;5022537;28;20401;-69
2022/04/11 08:09:46;;;;;;;14.25;3.25;;;;;;;;;;5025686;28;20077;-69
2022/04/11 08:12:12;;;;;;;10.05;2.63;;;;;;;;;;5014302;28;20045;-69
2022/04/11 08:14:38;;;;;;;22.30;3.10;;;;;;;;;;5022139;28;20041;-68
2022/04/11 08:17:04;;;;;;;11.40;2.55;;;;;;;;;;5030793;28;20037;-69
2022/04/11 08:19:30;;;;;;;7.15;2.55;;;;;;;;;;5014980;28;20250;-68
2022/04/11 08:21:57;;;;;;;11.43;2.60;;;;;;;;;;5014123;28;20143;-68
2022/04/11 08:24:23;;;;;;;14.50;2.75;;;;;;;;;;5014820;28;20092;-68
2022/04/11 08:26:49;;;;;;;9.02;2.30;;;;;;;;;;5021763;28;20122;-68
2022/04/11 08:29:17;;;;;;;9.30;2.83;;;;;;;;;;5018272;28;20073;-68
2022/04/11 08:31:43;;;;;;;5.65;2.30;;;;;;;;;;5015503;28;20054;-68
2022/04/11 08:34:09;;;;;;;6.80;2.13;;;;;;;;;;5028157;28;20052;-68
2022/04/11 08:36:35;;;;;;;6.65;2.10;;;;;;;;;;5017511;28;20049;-68
2022/04/11 08:39:01;;;;;;;6.63;2.30;;;;;;;;;;5023840;28;20103;-69
2022/04/11 08:41:32;;;;;;;7.10;2.47;;;;;;;;;;5027624;28;20049;-68
2022/04/11 08:43:59;;;;;;;7.70;2.10;;;;;;;;;;5028786;28;20049;-68
2022/04/11 08:46:26;;;;;;;7.60;2.15;;;;;;;;;;5030147;28;20116;-68
2022/04/11 08:48:52;;;;;;;8.02;2.35;;;;;;;;;;5027571;28;20087;-68
2022/04/11 08:51:18;;;;;;;4.22;1.92;;;;;;;;;;5029108;28;20436;-68
2022/04/11 08:53:44;;;;;;;5.65;1.80;;;;;;;;;;5030867;28;20459;-69
2022/04/11 08:56:10;;;;;;;6.70;2.10;;;;;;;;;;5032197;28;20053;-68
2022/04/11 08:58:36;;;;;;;9.63;2.25;;;;;;;;;;5031149;28;20541;-68
2022/04/11 09:01:03;;;;;;;3.40;2.13;;;;;;;;;;5032412;28;20128;-68
2022/04/11 09:03:29;;;;;;;10.02;2.28;;;;;;;;;;5021050;28;20046;-68
2022/04/11 09:06:09;;;;;;;10.68;2.17;;;;;;;;;;5013090;28;20128;-68
2022/04/11 09:08:39;;;;;;;5.53;1.98;;;;;;;;;;5013897;28;20037;-68
2022/04/11 09:11:05;;;;;;;5.78;2.03;;;;;;;;;;5013493;28;20485;-68
2022/04/11 09:13:46;;;;;;;6.03;2.03;;;;;;;;;;5013388;28;20088;-68
2022/04/11 09:16:12;;;;;;;3.88;1.95;;;;;;;;;;5031306;28;20068;-69
2022/04/11 09:18:50;;;;;;;5.85;2.20;;;;;;;;;;5032654;28;20088;-69
2022/04/11 09:21:17;;;;;;;6.97;2.20;;;;;;;;;;5018389;28;20493;-68
2022/04/11 09:23:43;;;;;;;5.50;2.00;;;;;;;;;;5031684;28;20516;-68
2022/04/11 09:26:16;;;;;;;9.80;2.10;;;;;;;;;;5032771;28;20037;-68
2022/04/11 09:28:42;;;;;;;7.05;1.90;;;;;;;;;;5032204;28;20480;-69
2022/04/11 09:31:08;;;;;;;9.70;2.00;;;;;;;;;;5029707;28;20045;-69
2022/04/11 09:33:40;;;;;;;9.30;2.10;;;;;;;;;;5027439;28;20511;-68
2022/04/11 09:36:06;;;;;;;9.13;2.13;;;;;;;;;;5032147;28;20399;-68
2022/04/11 09:38:39;;;;;;;6.22;1.70;;;;;;;;;;5032444;28;20457;-69
2022/04/11 09:41:06;;;;;;;24.52;3.72;;;;;;;;;;5030625;28;20128;-68
2022/04/11 09:43:33;;;;;;;16.60;3.17;;;;;;;;;;5027279;28;20517;-68
2022/04/11 09:46:00;;;;;;;61.05;8.70;;;;;;;;;;5012933;28;20445;-68
2022/04/11 09:48:28;;;;;;;52.65;7.45;;;;;;;;;;5013254;28;20050;-67
2022/04/11 09:50:55;;;;;;;34.63;4.60;;;;;;;;;;5027152;28;20076;-69
2022/04/11 09:53:22;;;;;;;25.77;4.30;;;;;;;;;;5021297;28;20049;-69
2022/04/11 09:55:50;;;;;;;28.83;4.78;;;;;;;;;;5031469;28;20125;-70
2022/04/11 09:58:17;;;;;;;21.10;3.50;;;;;;;;;;5036711;28;20102;-69
2022/04/11 10:00:43;;;;;;;20.35;3.83;;;;;;;;;;5036886;28;20061;-69
2022/04/11 10:03:09;;;;;;;23.58;3.95;;;;;;;;;;5019440;28;20489;-69
2022/04/11 10:05:36;;;;;;;16.90;3.28;;;;;;;;;;4998713;28;20409;-69
2022/04/11 10:08:10;;;;;;;17.33;3.72;;;;;;;;;;5016628;28;20046;-69
2022/04/11 10:10:39;;;;;;;13.90;3.08;;;;;;;;;;5023847;28;20049;-70
2022/04/11 10:13:10;;;;;;;14.55;3.13;;;;;;;;;;5028620;28;20050;-69
2022/04/11 10:15:39;;;;;;;14.80;3.55;;;;;;;;;;5026719;28;20136;-69
2022/04/11 10:18:06;;;;;;;16.40;3.53;;;;;;;;;;5031507;28;20041;-68
2022/04/11 10:20:40;;;;;;;15.88;3.40;;;;;;;;;;5034695;28;20132;-69
2022/04/11 10:23:14;;;;;;;22.60;6.18;;;;;;;;;;5035119;28;20037;-71
2022/04/11 10:25:45;;;;;;;26.97;8.60;;;;;;;;;;5035971;28;20056;-69
2022/04/11 10:28:15;;;;;;;18.92;7.68;;;;;;;;;;5035625;28;20515;-69
2022/04/11 10:30:41;;;;;;;17.73;6.32;;;;;;;;;;5033741;28;20049;-69
2022/04/11 10:33:07;;;;;;;14.15;6.50;;;;;;;;;;5035687;28;20542;-69
2022/04/11 10:35:34;;;;;;;17.30;6.28;;;;;;;;;;5035485;28;20047;-68
2022/04/11 10:38:00;;;;;;;15.68;5.97;;;;;;;;;;5017969;28;20073;-68
2022/04/11 10:40:27;;;;;;;16.23;5.50;;;;;;;;;;5035567;28;20127;-68
2022/04/11 10:42:58;;;;;;;18.15;5.35;;;;;;;;;;5018289;28;20121;-69
2022/04/11 10:45:34;;;;;;;11.50;4.95;;;;;;;;;;5015757;28;20045;-69
2022/04/11 10:48:01;;;;;;;13.35;4.78;;;;;;;;;;5027726;28;20046;-70
2022/04/11 10:50:28;;;;;;;12.05;4.75;;;;;;;;;;5016316;28;20093;-70
2022/04/11 10:52:56;;;;;;;16.92;4.72;;;;;;;;;;5035151;28;20041;-70
2022/04/11 10:55:23;;;;;;;18.40;4.85;;;;;;;;;;5035246;28;20045;-69
2022/04/11 10:57:54;;;;;;;15.52;4.60;;;;;;;;;;5035043;28;20135;-71
2022/04/11 11:00:22;;;;;;;13.88;4.43;;;;;;;;;;5034446;28;20068;-71
2022/04/11 11:02:55;;;;;;;12.38;4.10;;;;;;;;;;5033600;28;20062;-71
2022/04/11 11:05:24;;;;;;;9.65;4.18;;;;;;;;;;5028823;28;20115;-71
2022/04/11 11:08:12;;;;;;;15.18;4.40;;;;;;;;;;5015420;28;20042;-71
2022/04/11 11:10:42;;;;;;;13.23;4.00;;;;;;;;;;5030253;28;20077;-72
2022/04/11 11:13:27;;;;;;;42.78;7.75;;;;;;;;;;5025230;28;20485;-71
2022/04/11 11:15:53;;;;;;;16.92;4.82;;;;;;;;;;5028217;28;20053;-71
2022/04/11 11:18:19;;;;;;;18.35;5.18;;;;;;;;;;5014979;28;20045;-71
2022/04/11 11:20:56;;;;;;;25.30;5.18;;;;;;;;;;5034338;28;20152;-72
2022/04/11 11:23:31;;;;;;;19.00;4.65;;;;;;;;;;5034524;28;20049;-71
2022/04/11 11:26:06;;;;;;;15.18;4.90;;;;;;;;;;5034842;28;20055;-71
2022/04/11 11:28:33;;;;;;;15.30;3.88;;;;;;;;;;5034802;28;20076;-72
2022/04/11 11:30:59;;;;;;;14.85;4.88;;;;;;;;;;5021534;28;20404;-71
2022/04/11 11:33:26;;;;;;;13.23;4.47;;;;;;;;;;5033928;28;20552;-71
2022/04/11 11:35:52;;;;;;;14.93;4.10;;;;;;;;;;5034221;28;20049;-71
2022/04/11 11:38:26;;;;;;;14.25;4.03;;;;;;;;;;5034469;28;20134;-71
2022/04/11 11:40:56;;;;;;;12.75;4.28;;;;;;;;;;5033491;28;20041;-71
2022/04/11 11:43:22;;;;;;;22.95;4.90;;;;;;;;;;5033471;28;20037;-71
2022/04/11 11:45:49;;;;;;;15.73;4.60;;;;;;;;;;5031283;28;20051;-71
2022/04/11 11:48:25;;;;;;;19.08;4.45;;;;;;;;;;5014266;28;20064;-71
2022/04/11 11:50:51;;;;;;;20.88;4.90;;;;;;;;;;5014580;28;20042;-71
2022/04/11 11:53:18;;;;;;;17.50;4.57;;;;;;;;;;5020172;28;20073;-71
2022/04/11 11:55:54;;;;;;;16.80;4.30;;;;;;;;;;5034178;28;20037;-71
2022/04/11 11:58:20;;;;;;;16.33;4.47;;;;;;;;;;5034086;28;20050;-71
2022/04/11 12:00:49;;;;;;;20.52;4.32;;;;;;;;;;5033112;28;20385;-71
2022/04/11 12:06:01;;;;;;;14.57;4.23;;;;;;;;;;5016087;28;20053;-71
2022/04/11 12:08:30;;;;;;;18.30;4.70;;;;;;;;;;5032944;28;20075;-71
2022/04/11 12:10:58;;;;;;;11.15;3.58;;;;;;;;;;5014258;28;20046;-71
2022/04/11 12:13:25;;;;;;;10.77;3.67;;;;;;;;;;5030678;28;20444;-71
2022/04/11 12:15:51;;;;;;;14.82;3.53;;;;;;;;;;5031113;28;20045;-71
2022/04/11 12:18:17;;;;;;;15.05;4.13;;;;;;;;;;5013898;28;20476;-71
2022/04/11 12:20:44;;;;;;;12.85;3.72;;;;;;;;;;5013886;28;20057;-71
2022/04/11 12:23:10;;;;;;;12.07;3.30;;;;;;;;;;5017196;28;20465;-71
2022/04/11 12:25:37;;;;;;;11.20;3.80;;;;;;;;;;5033503;28;20484;-71
2022/04/11 12:28:22;;;;;;;13.45;3.30;;;;;;;;;;5027779;28;20061;-71
2022/04/11 12:31:16;;;;;;;12.88;3.53;;;;;;;;;;5014821;28;20046;-71
2022/04/11 12:33:44;;;;;;;11.13;3.63;;;;;;;;;;5021033;28;20049;-72
2022/04/11 12:36:12;;;;;;;10.40;4.05;;;;;;;;;;5033291;28;20092;-71
2022/04/11 12:38:41;;;;;;;12.68;3.33;;;;;;;;;;5031837;28;20044;-71
2022/04/11 12:41:09;;;;;;;8.73;3.20;;;;;;;;;;5033377;28;20041;-71
2022/04/11 12:43:55;;;;;;;11.52;3.20;;;;;;;;;;5030191;28;20112;-71
2022/04/11 12:46:24;;;;;;;9.00;3.53;;;;;;;;;;5013489;28;20052;-71
2022/04/11 12:48:54;;;;;;;9.82;3.40;;;;;;;;;;5012258;28;20096;-71
2022/04/11 12:51:20;;;;;;;6.53;2.88;;;;;;;;;;5012426;28;20068;-69
2022/04/11 12:53:46;;;;;;;9.80;3.20;;;;;;;;;;5026522;28;20052;-69
2022/04/11 12:56:12;;;;;;;10.82;3.00;;;;;;;;;;5047569;28;20052;-70
2022/04/11 12:58:38;;;;;;;8.60;3.03;;;;;;;;;;5048642;28;20045;-70
2022/04/11 13:01:04;;;;;;;7.63;2.95;;;;;;;;;;5016097;28;20057;-69
2022/04/11 13:03:30;;;;;;;7.28;2.90;;;;;;;;;;5022290;28;20042;-70
2022/04/11 13:06:01;;;;;;;7.57;2.67;;;;;;;;;;5014865;28;20111;-69
2022/04/11 13:08:29;;;;;;;8.75;2.70;;;;;;;;;;5032176;28;20096;-70
2022/04/11 13:10:58;;;;;;;8.23;3.08;;;;;;;;;;5031331;28;20077;-70
2022/04/11 13:13:25;;;;;;;7.35;2.85;;;;;;;;;;5033008;28;20086;-70
2022/04/11 13:18:36;;;;;;;9.70;3.38;;;;;;;;;;5033258;28;20492;-70
2022/04/11 13:21:02;;;;;;;5.90;2.60;;;;;;;;;;5022856;28;20056;-70
2022/04/11 13:23:28;;;;;;;8.40;3.15;;;;;;;;;;5013971;28;20053;-70
2022/04/11 13:25:54;;;;;;;6.50;2.65;;;;;;;;;;5008243;28;20046;-70
2022/04/11 13:28:20;;;;;;;6.57;2.30;;;;;;;;;;5035521;28;20455;-70
2022/04/11 13:30:46;;;;;;;7.07;3.08;;;;;;;;;;5017355;28;20046;-70
2022/04/11 13:33:12;;;;;;;7.20;2.65;;;;;;;;;;5025643;28;20143;-69
2022/04/11 13:35:38;;;;;;;13.40;3.20;;;;;;;;;;5036795;28;20054;-70
2022/04/11 13:38:04;;;;;;;6.63;2.80;;;;;;;;;;5036620;28;20045;-70
2022/04/11 13:40:30;;;;;;;9.27;2.80;;;;;;;;;;5023262;28;20077;-70
2022/04/11 13:42:58;;;;;;;8.63;2.75;;;;;;;;;;5030679;28;20051;-70
2022/04/11 13:45:24;;;;;;;5.90;2.60;;;;;;;;;;5036499;28;20456;-69
2022/04/11 13:47:50;;;;;;;5.50;2.30;;;;;;;;;;5020853;28;20046;-70
2022/04/11 13:50:16;;;;;;;6.63;2.53;;;;;;;;;;5017018;28;20049;-70
2022/04/11 13:52:42;;;;;;;6.85;2.20;;;;;;;;;;5034936;28;20041;-70
2022/04/11 13:55:08;;;;;;;9.50;2.95;;;;;;;;;;5036277;28;20092;-69
2022/04/11 13:57:34;;;;;;;6.50;2.13;;;;;;;;;;5035961;28;20057;-69
2022/04/11 14:00:00;;;;;;;7.05;2.20;;;;;;;;;;5022332;28;20057;-70
2022/04/11 14:02:26;;;;;;;4.68;2.28;;;;;;;;;;5016638;28;20050;-69
2022/04/11 14:04:52;;;;;;;6.05;2.22;;;;;;;;;;5016388;28;20051;-70
2022/04/11 14:07:18;;;;;;;6.65;2.22;;;;;;;;;;5021578;28;20038;-69
2022/04/11 14:09:44;;;;;;;5.90;2.10;;;;;;;;;;5022884;28;20439;-70
2022/04/11 14:12:10;;;;;;;4.40;2.00;;;;;;;;;;5025896;28;21113;-69
2022/04/11 14:14:36;;;;;;;4.95;2.03;;;;;;;;;;5017692;28;20064;-70
2022/04/11 14:17:02;;;;;;;4.35;2.30;;;;;;;;;;5026794;28;20046;-70
2022/04/11 14:19:28;;;;;;;3.67;1.90;;;;;;;;;;5018126;28;20053;-70
2022/04/11 14:21:54;;;;;;;7.35;2.25;;;;;;;;;;5035751;28;20041;-69
2022/04/11 14:24:21;;;;;;;5.40;2.17;;;;;;;;;;5016084;28;20133;-69
2022/04/11 14:26:47;;;;;;;4.88;2.42;;;;;;;;;;5015843;28;20069;-70
2022/04/11 14:29:13;;;;;;;4.68;2.13;;;;;;;;;;5022739;28;20034;-70
2022/04/11 14:31:39;;;;;;;6.40;2.45;;;;;;;;;;5022859;28;20120;-70
2022/04/11 14:34:05;;;;;;;4.38;1.90;;;;;;;;;;5035592;28;20083;-70
2022/04/11 14:36:32;;;;;;;3.90;2.00;;;;;;;;;;5035580;28;20038;-69
2022/04/11 14:38:59;;;;;;;4.57;2.00;;;;;;;;;;5034602;28;20061;-70
2022/04/11 14:41:25;;;;;;;5.50;2.00;;;;;;;;;;5035427;28;20064;-69
2022/04/11 14:43:51;;;;;;;4.72;2.20;;;;;;;;;;5027467;28;20121;-70
2022/04/11 14:46:17;;;;;;;4.93;2.00;;;;;;;;;;5016667;28;20635;-70